Time;durP1;ratioP1;P1;durP2;ratioP2;P2;SDS_P1;SDS_P2;PMS_P1;PMS_P2;Temp;Humidity;BMP_temperature;BMP_pressure;BME280_temperature;BME280_humidity;BME280_pressure;Samples;Min_cycle;Max_cycle;Signal;HPM_P1;HPM_P2
2022/11/23 00:01:34;;;;;;;3.22;1.30;;;;;;;13.23;55.73;98189.66;4949670;28;20033;-93
2022/11/23 00:04:10;;;;;;;1.83;1.20;;;;;;;13.28;55.86;98206.53;4973465;28;20030;-93
2022/11/23 00:06:36;;;;;;;1.88;1.30;;;;;;;13.17;56.08;98199.81;4964468;28;20116;-93
2022/11/23 00:09:01;;;;;;;2.00;1.40;;;;;;;13.13;56.31;98185.34;4954291;28;20037;-93
2022/11/23 00:11:27;;;;;;;5.15;1.67;;;;;;;13.21;56.49;98197.28;4956757;28;20037;-93
2022/11/23 00:13:53;;;;;;;3.38;1.50;;;;;;;13.09;56.35;98170.84;4973250;28;20064;-93
2022/11/23 00:16:23;;;;;;;2.92;1.65;;;;;;;13.27;56.46;98202.22;4952806;28;20037;-93
2022/11/23 00:18:54;;;;;;;3.72;1.63;;;;;;;13.28;56.51;98194.91;4972368;28;20033;-93
2022/11/23 00:21:20;;;;;;;2.20;1.40;;;;;;;13.28;56.53;98192.19;4972406;28;20014;-93
2022/11/23 00:23:46;;;;;;;3.22;1.45;;;;;;;13.31;56.65;98197.81;4971645;28;20026;-92
2022/11/23 00:26:12;;;;;;;4.60;1.67;;;;;;;13.30;56.51;98192.72;4990005;28;20022;-93
2022/11/23 00:28:38;;;;;;;4.07;1.45;;;;;;;13.29;56.73;98188.44;4951444;28;20022;-93
2022/11/23 00:31:07;;;;;;;3.03;1.40;;;;;;;13.29;56.77;98175.69;4970593;28;20034;-93
2022/11/23 00:33:33;;;;;;;3.53;1.75;;;;;;;13.32;56.81;98166.16;4976540;28;20022;-93
2022/11/23 00:36:05;;;;;;;5.22;1.70;;;;;;;13.26;57.08;98143.06;4972431;28;20122;-92
2022/11/23 00:38:30;;;;;;;3.28;1.67;;;;;;;13.33;57.26;98135.31;4968649;28;20031;-93
2022/11/23 00:41:00;;;;;;;3.13;1.35;;;;;;;13.29;56.83;98120.84;4958149;28;20041;-93
2022/11/23 00:43:26;;;;;;;4.15;1.40;;;;;;;13.39;57.33;98122.44;4950566;28;20033;-93
2022/11/23 00:46:27;;;;;;;2.50;1.52;;;;;;;13.36;56.85;98113.03;4976316;28;20556;-93
2022/11/23 00:48:53;;;;;;;4.18;1.60;;;;;;;13.37;57.32;98111.16;4959094;28;20038;-92
2022/11/23 00:51:24;;;;;;;2.90;1.75;;;;;;;13.33;57.22;98117.19;4973390;28;20034;-93
2022/11/23 00:53:50;;;;;;;3.63;1.40;;;;;;;13.25;57.30;98095.53;4969397;28;20046;-93
2022/11/23 00:56:15;;;;;;;2.25;1.45;;;;;;;13.26;57.58;98103.34;4974560;28;20029;-93
2022/11/23 00:58:41;;;;;;;4.50;1.23;;;;;;;13.34;57.65;98099.88;4948488;28;20031;-94
2022/11/23 01:01:10;;;;;;;2.97;1.70;;;;;;;13.34;57.63;98099.88;4976151;28;20041;-93
2022/11/23 01:03:37;;;;;;;2.22;1.52;;;;;;;13.44;58.01;98117.66;4960992;28;20037;-93
2022/11/23 01:06:08;;;;;;;5.30;1.85;;;;;;;13.37;58.03;98097.63;4981225;28;20029;-93
2022/11/23 01:08:34;;;;;;;5.88;1.50;;;;;;;13.38;58.11;98102.72;4967290;28;20072;-92
2022/11/23 01:11:04;;;;;;;4.15;1.90;;;;;;;13.11;59.08;98112.69;4972394;28;20026;-93
2022/11/23 01:13:30;;;;;;;2.25;1.40;;;;;;;13.00;59.43;98111.41;4953284;28;20470;-93
2022/11/23 01:15:55;;;;;;;2.60;1.50;;;;;;;13.07;58.80;98098.22;4965389;28;20026;-93
2022/11/23 01:18:21;;;;;;;2.97;1.40;;;;;;;13.20;58.91;98107.31;4969426;28;20030;-91
2022/11/23 01:20:46;;;;;;;2.45;1.40;;;;;;;13.34;58.80;98118.78;4980301;28;20109;-93
2022/11/23 01:23:12;;;;;;;2.92;1.45;;;;;;;13.34;58.66;98107.16;4961801;28;20496;-93
2022/11/23 01:25:37;;;;;;;2.28;1.48;;;;;;;13.32;58.41;98096.69;4959749;28;20034;-93
2022/11/23 01:28:03;;;;;;;4.70;1.70;;;;;;;13.39;58.60;98117.84;4965291;28;20122;-92
2022/11/23 01:30:29;;;;;;;4.05;1.73;;;;;;;13.36;58.67;98109.56;4965024;28;20027;-93
2022/11/23 01:32:54;;;;;;;4.82;2.00;;;;;;;13.34;58.67;98101.75;4958342;28;20026;-93
2022/11/23 01:35:19;;;;;;;4.40;2.10;;;;;;;13.44;58.71;98092.53;4950053;28;20085;-93
2022/11/23 01:37:45;;;;;;;9.55;2.35;;;;;;;13.51;59.13;98120.69;4957751;28;20034;-93
2022/11/23 01:40:11;;;;;;;4.25;1.90;;;;;;;13.47;58.79;98105.44;4958560;28;20489;-93
2022/11/23 01:42:52;;;;;;;3.92;1.75;;;;;;;13.47;59.02;98083.81;4965517;28;20045;-93
2022/11/23 01:45:37;;;;;;;4.57;2.15;;;;;;;13.56;59.01;98091.91;4974009;28;20057;-93
2022/11/23 01:48:24;;;;;;;5.90;1.85;;;;;;;13.41;59.12;98068.84;4959921;28;20091;-93
2022/11/23 01:50:50;;;;;;;4.50;1.80;;;;;;;13.52;59.21;98081.72;4956159;28;20028;-93
2022/11/23 01:53:16;;;;;;;4.05;2.00;;;;;;;13.42;59.60;98065.81;4943663;28;20026;-93
2022/11/23 01:55:42;;;;;;;4.90;1.95;;;;;;;13.44;59.14;98074.41;4962176;28;20023;-93
2022/11/23 01:58:07;;;;;;;3.25;1.98;;;;;;;13.44;59.54;98055.47;4950650;28;20054;-93
2022/11/23 02:00:33;;;;;;;2.83;1.80;;;;;;;13.41;59.36;98045.31;4972805;28;20500;-93
2022/11/23 02:02:59;;;;;;;2.10;1.67;;;;;;;13.42;59.60;98041.47;4973251;28;20018;-93
2022/11/23 02:05:31;;;;;;;3.67;1.70;;;;;;;13.45;59.68;98032.75;4971627;28;20030;-93
2022/11/23 02:07:57;;;;;;;;;;;;;;;13.45;59.67;98042.78;4969216;28;20026;-93
2022/11/23 02:10:22;;;;;;;3.72;2.10;;;;;;;13.30;59.87;98020.50;4969710;28;19987;-93
2022/11/23 02:12:48;;;;;;;2.38;1.90;;;;;;;13.28;60.50;98014.59;4967000;28;20114;-94
2022/11/23 02:15:13;;;;;;;5.10;2.08;;;;;;;13.11;60.92;97998.38;4956446;28;20022;-93
2022/11/23 02:17:39;;;;;;;4.30;2.22;;;;;;;13.13;61.05;98015.84;4961396;28;20109;-93
2022/11/23 02:20:05;;;;;;;3.55;1.75;;;;;;;13.22;60.90;98029.41;4948630;28;20022;-93
2022/11/23 02:22:51;;;;;;;2.90;1.70;;;;;;;13.23;60.40;98043.69;4987319;28;20056;-93
2022/11/23 02:25:31;;;;;;;4.60;1.98;;;;;;;13.23;60.25;98049.88;4963265;28;20493;-93
2022/11/23 02:27:57;;;;;;;6.90;2.67;;;;;;;13.14;59.82;98041.78;4985913;28;20029;-92
2022/11/23 02:30:22;;;;;;;5.85;1.85;;;;;;;13.08;59.93;98034.16;4965619;28;20035;-93
2022/11/23 02:32:48;;;;;;;4.15;1.58;;;;;;;12.92;60.38;98031.91;4963950;28;20026;-93
2022/11/23 02:35:13;;;;;;;6.00;2.33;;;;;;;13.06;60.46;98033.69;4950951;28;20026;-93
2022/11/23 02:37:39;;;;;;;4.18;2.10;;;;;;;13.01;60.98;98037.34;4987197;28;20029;-93
2022/11/23 02:40:10;;;;;;;4.35;2.72;;;;;;;13.03;61.00;98042.41;4952028;28;20507;-92
2022/11/23 02:42:35;;;;;;;8.38;3.42;;;;;;;12.96;61.62;98048.28;4971288;28;20052;-92
2022/11/23 02:45:10;;;;;;;12.80;3.95;;;;;;;13.01;61.95;98056.25;4950358;28;20034;-93
2022/11/23 02:47:36;;;;;;;7.10;3.65;;;;;;;12.92;62.09;98036.53;4963466;28;20036;-92
2022/11/23 02:50:01;;;;;;;5.93;3.25;;;;;;;12.94;62.38;98040.50;4957912;28;20025;-93
2022/11/23 02:52:27;;;;;;;8.95;3.38;;;;;;;12.97;62.35;98022.06;4951095;28;20492;-93
2022/11/23 02:54:52;;;;;;;10.48;3.95;;;;;;;12.97;62.87;98040.97;4966238;28;20029;-93
2022/11/23 02:57:18;;;;;;;8.95;3.40;;;;;;;12.99;62.52;98028.75;4967300;28;20033;-92
2022/11/23 02:59:43;;;;;;;7.10;3.00;;;;;;;12.99;62.68;98034.16;4965642;28;20021;-93
2022/11/23 03:02:09;;;;;;;5.25;2.78;;;;;;;13.13;62.81;98042.88;4953149;28;20026;-94
2022/11/23 03:04:34;;;;;;;3.80;2.70;;;;;;;13.13;62.92;98032.06;4968698;28;20029;-93
2022/11/23 03:07:00;;;;;;;5.13;2.80;;;;;;;13.19;62.83;98034.63;4968148;28;20019;-93
2022/11/23 03:09:25;;;;;;;4.30;2.70;;;;;;;13.14;63.12;98030.19;4969846;28;20081;-92
2022/11/23 03:11:52;;;;;;;4.82;2.67;;;;;;;13.13;63.37;98034.00;4967989;28;20390;-93
2022/11/23 03:14:17;;;;;;;7.03;2.50;;;;;;;13.16;63.77;98041.47;4969220;28;20180;-93
2022/11/23 03:16:42;;;;;;;5.68;2.72;;;;;;;12.93;64.10;98041.63;4964470;28;20029;-93
2022/11/23 03:19:08;;;;;;;4.47;2.15;;;;;;;12.59;64.53;98041.56;4972129;28;20403;-93
2022/11/23 03:21:33;;;;;;;5.85;2.25;;;;;;;12.61;64.93;98040.13;4975664;28;20031;-93
2022/11/23 03:23:59;;;;;;;4.75;2.72;;;;;;;12.59;64.56;98046.97;4961253;28;20030;-92
2022/11/23 03:26:24;;;;;;;3.67;2.28;;;;;;;12.53;64.52;98030.91;4971871;28;20021;-93
2022/11/23 03:28:50;;;;;;;2.42;1.70;;;;;;;12.56;65.07;98026.00;4968292;28;20026;-93
2022/11/23 03:31:15;;;;;;;2.55;1.58;;;;;;;12.54;64.90;98019.00;4971265;28;20029;-92
2022/11/23 03:33:41;;;;;;;2.28;1.38;;;;;;;12.55;65.34;98011.69;4975260;28;20029;-93
2022/11/23 03:36:07;;;;;;;3.03;1.20;;;;;;;12.56;65.86;98018.69;4975964;28;20025;-92
2022/11/23 03:38:32;;;;;;;1.20;1.10;;;;;;;12.68;65.94;98035.06;4973731;28;20083;-93
2022/11/23 03:40:57;;;;;;;2.83;1.50;;;;;;;12.81;65.60;98038.75;4974227;28;20030;-93
2022/11/23 03:43:23;;;;;;;1.70;1.20;;;;;;;12.90;65.88;98027.94;4976357;28;20092;-92
2022/11/23 03:45:51;;;;;;;1.75;1.23;;;;;;;12.90;66.43;98020.63;4957023;28;20026;-93
2022/11/23 03:48:16;;;;;;;2.83;1.30;;;;;;;12.88;65.97;98009.34;4969265;28;20473;-92
2022/11/23 03:50:43;;;;;;;3.55;1.85;;;;;;;12.84;66.69;97994.09;4967594;28;20033;-93
2022/11/23 03:53:13;;;;;;;2.22;1.60;;;;;;;12.98;66.66;98021.75;4957954;28;20045;-92
2022/11/23 03:55:39;;;;;;;1.85;1.60;;;;;;;12.90;66.78;98009.81;4989843;28;20539;-92
2022/11/23 03:58:04;;;;;;;2.05;1.38;;;;;;;12.91;66.77;98016.03;4961713;28;20097;-93
2022/11/23 04:00:30;;;;;;;2.47;1.92;;;;;;;12.81;66.57;98013.66;4973227;28;20072;-93
2022/11/23 04:02:55;;;;;;;3.15;1.67;;;;;;;12.79;66.97;98016.66;4966878;28;20267;-92
2022/11/23 04:05:21;;;;;;;2.15;1.55;;;;;;;12.88;66.84;98022.06;4950039;28;20544;-92
2022/11/23 04:07:47;;;;;;;2.05;1.50;;;;;;;12.77;66.98;98016.19;4975881;28;20026;-92
2022/11/23 04:10:16;;;;;;;3.33;1.55;;;;;;;12.84;66.68;98008.38;4958151;28;20029;-92
2022/11/23 04:12:41;;;;;;;1.90;1.60;;;;;;;12.90;66.62;98025.25;4972983;28;20080;-92
2022/11/23 04:15:07;;;;;;;2.58;1.50;;;;;;;12.77;66.99;98015.38;4977170;28;20507;-93
2022/11/23 04:17:33;;;;;;;2.83;1.80;;;;;;;12.76;66.83;98014.56;4957922;28;20507;-93
2022/11/23 04:20:00;;;;;;;1.80;1.60;;;;;;;12.74;66.95;98004.09;4969473;28;20556;-93
2022/11/23 04:22:26;;;;;;;2.03;1.75;;;;;;;12.76;66.92;98013.78;4975298;28;20026;-93
2022/11/23 04:24:51;;;;;;;2.88;1.90;;;;;;;12.72;66.96;98017.13;4960660;28;20575;-93
2022/11/23 04:27:17;;;;;;;1.67;1.55;;;;;;;12.76;66.96;98008.38;4936749;28;20014;-93
2022/11/23 04:29:42;;;;;;;2.53;1.58;;;;;;;12.70;67.12;98000.44;4954332;28;20411;-92
2022/11/23 04:32:08;;;;;;;3.08;1.88;;;;;;;12.82;67.61;98005.22;4982043;28;20033;-93
2022/11/23 04:34:34;;;;;;;2.72;1.90;;;;;;;12.81;68.09;98000.16;4969315;28;20037;-93
2022/11/23 04:36:59;;;;;;;4.68;2.53;;;;;;;12.64;69.10;98001.72;4970267;28;20116;-92
2022/11/23 04:39:24;;;;;;;2.70;2.20;;;;;;;12.76;68.54;98011.88;4975258;28;20034;-93
2022/11/23 04:41:52;;;;;;;3.55;2.78;;;;;;;12.76;68.83;98011.88;4964743;28;20034;-93
2022/11/23 04:44:20;;;;;;;3.85;2.53;;;;;;;12.73;68.64;98002.50;4968447;28;20095;-92
2022/11/23 04:46:45;;;;;;;6.40;3.38;;;;;;;12.78;68.45;98001.53;4961728;28;20015;-93
2022/11/23 04:49:11;;;;;;;7.05;2.78;;;;;;;12.75;68.74;97988.69;4976197;28;20452;-94
2022/11/23 04:51:36;;;;;;;5.68;2.83;;;;;;;12.74;69.04;97987.91;4982579;28;20025;-93
2022/11/23 04:54:02;;;;;;;4.75;2.90;;;;;;;12.69;69.11;97968.34;4982924;28;20026;-94
2022/11/23 04:56:29;;;;;;;3.90;2.90;;;;;;;12.86;69.06;97994.56;4966008;28;20032;-93
2022/11/23 04:58:54;;;;;;;8.65;7.00;;;;;;;12.85;69.21;97993.78;4982089;28;20037;-92
2022/11/23 05:01:20;;;;;;;3.50;3.20;;;;;;;12.69;69.15;97968.34;4982162;28;20029;-93
2022/11/23 05:03:45;;;;;;;3.90;3.15;;;;;;;12.77;68.98;97970.25;4979283;28;20022;-92
2022/11/23 05:06:11;;;;;;;4.53;3.30;;;;;;;12.70;69.17;97957.25;4967569;28;20052;-93
2022/11/23 05:08:36;;;;;;;3.90;2.85;;;;;;;12.63;69.53;97956.91;4960224;28;20032;-92
2022/11/23 05:11:02;;;;;;;7.13;3.10;;;;;;;12.65;69.71;97951.97;4970369;28;20475;-94
2022/11/23 05:13:27;;;;;;;3.55;2.85;;;;;;;12.57;69.98;97943.88;4980561;28;20405;-95
2022/11/23 05:15:53;;;;;;;3.72;2.80;;;;;;;12.67;69.56;97952.47;4963849;28;20022;-96
2022/11/23 05:18:19;;;;;;;8.70;3.13;;;;;;;12.71;69.67;97958.81;4983787;28;20030;-96
2022/11/23 05:20:45;;;;;;;4.90;3.28;;;;;;;12.68;69.48;97937.84;4964754;28;20022;-95
2022/11/23 05:23:13;;;;;;;14.32;10.73;;;;;;;12.81;69.21;97957.72;4980778;28;20072;-95
2022/11/23 05:25:38;;;;;;;4.25;3.75;;;;;;;12.92;69.07;97971.69;4964866;28;20027;-95
2022/11/23 05:28:07;;;;;;;6.78;3.85;;;;;;;12.92;68.97;97985.97;4947750;28;20023;-95
2022/11/23 05:30:32;;;;;;;4.40;3.60;;;;;;;12.96;68.04;97969.16;4976684;28;20121;-95
2022/11/23 05:33:01;;;;;;;5.80;3.67;;;;;;;12.97;68.35;97981.53;4961174;28;20006;-96
2022/11/23 05:35:27;;;;;;;4.90;3.22;;;;;;;13.04;68.24;97992.69;4960773;28;20043;-95
2022/11/23 05:37:52;;;;;;;3.70;3.05;;;;;;;12.96;68.21;97971.84;4952096;28;20081;-93
2022/11/23 05:40:18;;;;;;;5.63;2.92;;;;;;;13.07;67.74;97987.44;4967541;28;20038;-93
2022/11/23 05:42:46;;;;;;;9.30;3.58;;;;;;;13.20;67.58;97991.06;4957795;28;20034;-93
2022/11/23 05:45:11;;;;;;;5.32;2.97;;;;;;;13.19;67.17;97985.97;4965568;28;20035;-93
2022/11/23 05:47:37;;;;;;;7.57;4.10;;;;;;;13.26;67.58;98005.19;4965797;28;20383;-92
2022/11/23 05:50:03;;;;;;;7.20;4.03;;;;;;;13.19;67.60;97975.16;4960162;28;20019;-92
2022/11/23 05:52:28;;;;;;;6.70;3.90;;;;;;;13.19;67.58;97973.25;4953385;28;20022;-95
2022/11/23 05:54:54;;;;;;;4.07;2.42;;;;;;;13.36;67.45;98006.81;4948397;28;20023;-93
2022/11/23 05:57:21;;;;;;;12.27;6.40;;;;;;;13.35;66.89;97987.09;4966802;28;20063;-92
2022/11/23 05:59:47;;;;;;;8.70;4.70;;;;;;;13.39;66.91;97988.06;4943728;29;20185;-91
2022/11/23 06:02:15;;;;;;;8.48;3.00;;;;;;;13.52;66.57;98008.69;4940362;29;20035;-92
2022/11/23 06:04:44;;;;;;;8.07;3.33;;;;;;;13.56;66.65;98000.75;4969062;28;20022;-92
2022/11/23 06:07:10;;;;;;;5.25;3.17;;;;;;;13.63;66.23;97997.53;4980994;28;20062;-92
2022/11/23 06:09:36;;;;;;;3.38;2.63;;;;;;;13.58;66.18;97979.56;4953375;28;20041;-95
2022/11/23 06:12:02;;;;;;;7.43;4.07;;;;;;;13.67;65.99;97987.66;4960854;28;20462;-95
2022/11/23 06:14:30;;;;;;;5.32;2.90;;;;;;;13.77;65.85;97992.72;4925174;29;20087;-95
2022/11/23 06:17:03;;;;;;;7.13;4.38;;;;;;;13.67;65.52;97974.13;4925462;29;20474;-95
2022/11/23 06:19:34;;;;;;;4.80;3.80;;;;;;;13.69;65.73;97977.31;4913004;29;20037;-96
2022/11/23 06:21:59;;;;;;;9.30;4.95;;;;;;;13.83;65.56;97986.03;4930436;28;20030;-95
2022/11/23 06:24:25;;;;;;;5.43;3.70;;;;;;;13.73;65.64;97967.44;4960417;28;20065;-95
2022/11/23 06:26:51;;;;;;;4.50;3.30;;;;;;;13.80;65.61;97961.53;4967996;28;20027;-92
2022/11/23 06:29:17;;;;;;;9.55;5.68;;;;;;;13.83;65.73;97969.78;4955885;28;20031;-93
2022/11/23 06:31:43;;;;;;;5.00;3.15;;;;;;;13.85;65.32;97964.06;4957215;28;20066;-93
2022/11/23 06:34:52;;;;;;;5.82;3.50;;;;;;;13.89;65.05;97986.66;4966036;28;20042;-93
2022/11/23 06:38:08;;;;;;;3.40;2.45;;;;;;;13.93;65.60;98017.34;4989818;28;20127;-95
2022/11/23 06:40:49;;;;;;;12.27;7.72;;;;;;;13.93;65.40;97979.47;4960440;28;20116;-96
2022/11/23 06:43:27;;;;;;;8.85;5.15;;;;;;;14.06;65.11;97974.94;4929892;29;20047;-96
2022/11/23 06:46:07;;;;;;;4.50;3.20;;;;;;;14.17;64.71;97989.69;4951475;28;20062;-94
2022/11/23 06:48:42;;;;;;;6.05;2.88;;;;;;;14.22;64.12;97975.19;4962517;28;20031;-96
2022/11/23 06:51:08;;;;;;;3.97;2.72;;;;;;;14.31;64.26;97990.25;4946256;28;20038;-95
2022/11/23 06:53:36;;;;;;;3.75;2.25;;;;;;;14.19;63.95;97963.09;4948810;28;20113;-96
2022/11/23 06:56:03;;;;;;;3.67;2.92;;;;;;;14.27;64.17;97981.19;4947574;28;20082;-95
2022/11/23 06:58:28;;;;;;;9.82;7.57;;;;;;;14.22;64.30;97984.09;4936208;28;20035;-96
2022/11/23 07:01:20;;;;;;;5.75;3.15;;;;;;;14.23;64.20;97976.78;4923305;28;20043;-96
2022/11/23 07:03:46;;;;;;;4.43;3.42;;;;;;;14.37;63.74;97979.25;4965952;28;20039;-96
2022/11/23 07:06:19;;;;;;;4.60;3.33;;;;;;;14.41;63.53;97993.72;4929230;29;20122;-96
2022/11/23 07:09:23;;;;;;;5.50;2.88;;;;;;;14.51;63.42;98001.47;4937942;28;20059;-96
2022/11/23 07:11:49;;;;;;;6.95;3.70;;;;;;;14.36;63.45;97989.31;4974857;28;20061;-96
2022/11/23 07:14:14;;;;;;;10.23;6.40;;;;;;;14.55;63.05;98002.41;4959005;28;20047;-96
2022/11/23 07:16:43;;;;;;;9.27;4.90;;;;;;;14.53;63.33;98004.66;4968887;28;20030;-96
2022/11/23 07:19:14;;;;;;;5.55;3.20;;;;;;;14.58;63.32;98001.75;4956754;28;20026;-96
2022/11/23 07:21:40;;;;;;;11.02;5.07;;;;;;;14.62;63.21;98010.03;4981888;28;20026;-96
2022/11/23 07:24:06;;;;;;;7.30;3.88;;;;;;;14.63;63.24;98009.72;4968841;28;20039;-96
2022/11/23 07:26:39;;;;;;;5.35;3.30;;;;;;;14.64;62.58;98003.16;4953696;28;20046;-96
2022/11/23 07:29:05;;;;;;;5.13;3.78;;;;;;;14.75;62.58;98034.19;4930962;29;20526;-96
2022/11/23 07:31:37;;;;;;;11.05;5.13;;;;;;;14.71;62.75;98019.72;4916708;29;20117;-96
2022/11/23 07:34:03;;;;;;;7.13;4.53;;;;;;;14.77;62.65;98031.13;4926959;29;20036;-95
2022/11/23 07:36:29;;;;;;;19.00;10.52;;;;;;;14.76;62.34;98029.56;4897143;29;20042;-94
2022/11/23 07:38:57;;;;;;;6.63;5.40;;;;;;;14.81;62.16;98033.97;4913075;29;20035;-96
2022/11/23 07:41:26;;;;;;;14.13;6.80;;;;;;;14.93;62.19;98044.91;4892265;29;20024;-92
2022/11/23 07:43:54;;;;;;;10.93;7.70;;;;;;;14.95;61.58;98029.88;4915386;29;20042;-94
2022/11/23 07:46:20;;;;;;;15.68;9.02;;;;;;;15.03;61.73;98035.59;4910004;29;20035;-95
2022/11/23 07:49:00;;;;;;;;;;;;;;;;;;;;;
2022/11/23 07:51:34;;;;;;;13.40;7.38;;;;;;;15.10;61.09;98020.34;4930591;29;20102;-96
2022/11/23 07:54:09;;;;;;;10.15;7.10;;;;;;;15.01;61.31;98002.59;4914613;29;20036;-95
2022/11/23 07:56:37;;;;;;;12.10;7.22;;;;;;;15.08;61.37;98027.25;4912830;29;20063;-96
2022/11/23 07:59:03;;;;;;;17.17;8.18;;;;;;;15.02;61.38;98023.13;4925645;29;20125;-95
2022/11/23 08:01:30;;;;;;;9.52;5.30;;;;;;;14.95;60.97;98018.25;4929765;29;20047;-96
2022/11/23 08:04:25;;;;;;;12.30;5.53;;;;;;;14.93;61.04;98021.28;4974521;23;20053;-96
2022/11/23 08:06:54;;;;;;;6.97;4.82;;;;;;;14.96;60.99;98014.41;4987074;28;20046;-96
2022/11/23 08:09:22;;;;;;;11.77;4.80;;;;;;;15.11;61.37;98038.22;4992696;28;20033;-96
2022/11/23 08:11:49;;;;;;;4.93;3.58;;;;;;;14.94;61.92;98025.59;5019731;28;20484;-95
2022/11/23 08:14:15;;;;;;;10.35;4.68;;;;;;;14.94;62.43;98008.53;4999842;28;20041;-94
2022/11/23 08:16:41;;;;;;;7.55;4.70;;;;;;;14.97;62.85;98026.06;5001222;28;20057;-96
2022/11/23 08:19:06;;;;;;;7.65;4.13;;;;;;;14.98;63.12;98035.75;5004605;28;20022;-92
2022/11/23 08:21:32;;;;;;;5.65;4.03;;;;;;;15.03;62.80;98043.72;5037116;28;20499;-94
2022/11/23 08:27:23;;;;;;;29.17;18.60;;;;;;;14.86;64.59;98058.19;5042430;28;20036;-94
2022/11/23 08:29:51;;;;;;;5.55;3.95;;;;;;;14.80;63.08;98027.78;5022449;28;20403;-96
2022/11/23 08:32:29;;;;;;;;;;;;;;;;;;;;;
2022/11/23 08:34:55;;;;;;;4.93;3.88;;;;;;;14.95;62.72;98034.50;5029294;28;20112;-95
2022/11/23 08:37:26;;;;;;;4.78;3.08;;;;;;;14.97;62.52;98031.47;5004378;28;20057;-95
2022/11/23 08:40:15;;;;;;;3.63;2.90;;;;;;;15.09;62.54;98043.19;5004056;28;20063;-94
2022/11/23 08:42:56;;;;;;;5.70;3.60;;;;;;;15.04;62.88;98018.97;4988216;28;20037;-94
2022/11/23 08:45:22;;;;;;;6.72;3.58;;;;;;;15.13;61.97;98025.13;5009227;28;20589;-94
2022/11/23 08:47:52;;;;;;;4.85;3.15;;;;;;;15.08;61.75;98022.59;4989257;28;20060;-94
2022/11/23 08:50:18;;;;;;;5.30;3.00;;;;;;;15.11;62.15;98021.94;4988052;28;20044;-93
2022/11/23 08:52:44;;;;;;;7.18;3.88;;;;;;;15.20;61.07;98042.78;4980586;28;20353;-94
2022/11/23 08:55:10;;;;;;;3.55;2.92;;;;;;;15.28;60.49;98037.28;4989411;28;20034;-92
2022/11/23 08:57:35;;;;;;;4.05;2.88;;;;;;;15.38;60.22;98027.94;4981420;28;20026;-91
2022/11/23 09:00:01;;;;;;;4.95;3.30;;;;;;;15.32;60.73;98013.78;4995908;28;20195;-90
2022/11/23 09:02:27;;;;;;;5.68;2.80;;;;;;;15.32;59.59;98008.38;4978930;28;20224;-90
2022/11/23 09:05:12;;;;;;;4.47;3.30;;;;;;;15.40;59.94;98006.72;4980546;28;20047;-92
2022/11/23 09:07:40;;;;;;;5.15;3.38;;;;;;;15.42;58.71;98018.03;4990134;28;20025;-93
2022/11/23 09:10:09;;;;;;;5.13;3.15;;;;;;;15.18;58.46;98023.34;5000987;28;20056;-93
2022/11/23 09:12:40;;;;;;;5.90;3.83;;;;;;;15.16;58.38;98021.75;5002697;28;20029;-92
2022/11/23 09:15:06;;;;;;;4.85;2.28;;;;;;;15.11;58.67;98029.31;5002380;28;20029;-94
2022/11/23 09:17:31;;;;;;;4.10;3.70;;;;;;;14.96;60.16;98030.66;5001979;28;20055;-94
2022/11/23 09:19:57;;;;;;;16.95;13.65;;;;;;;15.09;59.78;98035.06;5001791;28;20022;-93
2022/11/23 09:22:23;;;;;;;4.10;2.80;;;;;;;15.18;59.47;98032.25;4997462;28;20033;-92
2022/11/23 09:24:48;;;;;;;5.85;2.50;;;;;;;15.13;59.12;98038.69;4984577;28;20072;-93
2022/11/23 09:27:23;;;;;;;3.10;2.65;;;;;;;14.93;59.37;98020.50;5004765;28;20033;-94
2022/11/23 09:29:51;;;;;;;6.15;2.60;;;;;;;15.16;59.34;98038.00;4997944;28;20022;-93
2022/11/23 09:32:19;;;;;;;4.85;2.80;;;;;;;15.25;59.57;98034.44;5002777;28;20120;-94
2022/11/23 09:34:47;;;;;;;6.07;2.65;;;;;;;15.38;58.85;98027.13;5003267;28;20021;-92
2022/11/23 09:37:13;;;;;;;6.00;2.70;;;;;;;15.39;58.84;98026.81;4984667;28;20504;-91
2022/11/23 09:39:39;;;;;;;5.15;2.90;;;;;;;15.52;59.04;98038.50;5003985;28;20022;-92
